Time;durP1;ratioP1;P1;durP2;ratioP2;P2;SDS_P1;SDS_P2;PMS_P1;PMS_P2;Temp;Humidity;BMP_temperature;BMP_pressure;BME280_temperature;BME280_humidity;BME280_pressure;Samples;Min_cycle;Max_cycle;Signal;HPM_P1;HPM_P2
2022/11/26 00:02:20;;;;;;;;;;;;;;;9.90;59.82;102500.19;4953650;28;124412;-68
2022/11/26 00:04:47;;;;;;;;;;;;;;;9.88;59.61;102507.28;4956372;28;114156;-68
2022/11/26 00:07:16;;;;;;;;;;;;;;;9.87;59.67;102510.84;4954575;28;113531;-68
2022/11/26 00:09:43;;;;;;;;;;;;;;;9.85;59.44;102509.09;4958218;28;124073;-68
2022/11/26 00:12:22;;;;;;;;;;;;;;;9.85;59.53;102520.56;4962125;28;124098;-68
2022/11/26 00:14:49;;;;;;;;;;;;;;;9.84;59.85;102518.81;4958308;28;114348;-68
2022/11/26 00:17:16;;;;;;;;;;;;;;;9.84;59.63;102515.28;4938945;28;113660;-68
2022/11/26 00:19:43;;;;;;;;;;;;;;;9.84;59.63;102534.69;4956636;28;124019;-68
2022/11/26 00:22:24;;;;;;;;;;;;;;;9.83;59.50;102524.13;4952433;28;124622;-68
2022/11/26 00:24:52;;;;;;;;;;;;;;;9.83;59.70;102532.94;4955432;28;113212;-68
2022/11/26 00:27:19;;;;;;;;;;;;;;;9.82;59.59;102539.13;4938359;28;113846;-68
2022/11/26 00:29:45;;;;;;;;;;;;;;;9.82;59.70;102538.25;4958330;28;123746;-68
2022/11/26 00:32:14;;;;;;;;;;;;;;;9.81;59.71;102545.31;4959587;28;125331;-69
2022/11/26 00:34:41;;;;;;;;;;;;;;;9.81;59.53;102537.38;4954946;28;114698;-68
2022/11/26 00:37:17;;;;;;;;;;;;;;;9.80;59.71;102535.63;4962252;28;113768;-68
2022/11/26 00:39:44;;;;;;;;;;;;;;;9.79;59.69;102530.34;4958009;28;124621;-68
2022/11/26 00:42:11;;;;;;;;;;;;;;;9.76;59.30;102539.22;4959891;28;124135;-69
2022/11/26 00:44:38;;;;;;;;;;;;;;;9.77;59.63;102530.38;4957843;28;116090;-68
2022/11/26 00:47:05;;;;;;;;;;;;;;;9.75;59.41;102535.69;4960461;28;115102;-68
2022/11/26 00:49:33;;;;;;;;;;;;;;;9.73;59.60;102539.25;4948792;28;98497;-68
2022/11/26 00:52:00;;;;;;;;;;;;;;;9.71;59.71;102541.06;4962986;28;124690;-68
2022/11/26 00:54:27;;;;;;;;;;;;;;;9.71;59.42;102541.06;4956782;28;114692;-68
2022/11/26 00:56:54;;;;;;;;;;;;;;;9.70;59.86;102539.28;4951843;28;113903;-68
2022/11/26 00:59:21;;;;;;;;;;;;;;;9.71;59.62;102546.34;4959024;28;124198;-68
2022/11/26 01:01:48;;;;;;;;;;;;;;;9.71;59.73;102546.34;4935891;28;123743;-68
2022/11/26 01:04:15;;;;;;;;;;;;;;;9.70;59.56;102550.78;4964200;28;114425;-68
2022/11/26 01:06:43;;;;;;;;;;;;;;;9.69;59.62;102542.84;4957831;28;114164;-68
2022/11/26 01:09:15;;;;;;;;;;;;;;;9.68;59.45;102546.38;4959364;28;124721;-69
2022/11/26 01:11:41;;;;;;;;;;;;;;;9.68;59.72;102547.28;4958862;28;124258;-68
2022/11/26 01:14:13;;;;;;;;;;;;;;;9.68;59.40;102549.03;4954672;28;115423;-68
2022/11/26 01:16:42;;;;;;;;;;;;;;;9.67;59.65;102555.22;4933725;28;113004;-68
2022/11/26 01:19:10;;;;;;;;;;;;;;;9.66;59.56;102553.47;4951055;28;124925;-68
2022/11/26 01:21:37;;;;;;;;;;;;;;;9.65;59.63;102551.72;4957025;28;124969;-68
2022/11/26 01:24:04;;;;;;;;;;;;;;;9.62;59.56;102557.06;4954773;28;115214;-68
2022/11/26 01:26:33;;;;;;;;;;;;;;;9.61;59.70;102565.91;4933381;28;112831;-68
2022/11/26 01:29:00;;;;;;;;;;;;;;;9.60;59.73;102564.13;4954970;28;124171;-68
2022/11/26 01:31:28;;;;;;;;;;;;;;;9.59;59.35;102562.38;4963924;28;124767;-68
2022/11/26 01:33:55;;;;;;;;;;;;;;;9.55;59.46;102558.91;4954074;28;114512;-68
2022/11/26 01:36:22;;;;;;;;;;;;;;;9.53;59.69;102563.31;4954676;28;114995;-68
2022/11/26 01:38:49;;;;;;;;;;;;;;;9.51;59.51;102560.72;4959466;28;124223;-68
2022/11/26 01:41:22;;;;;;;;;;;;;;;9.50;59.33;102561.59;4958181;28;124591;-68
2022/11/26 01:43:50;;;;;;;;;;;;;;;9.50;59.69;102563.38;4959121;28;113821;-68
2022/11/26 01:46:19;;;;;;;;;;;;;;;9.49;59.51;102551.94;4959719;28;113411;-68
2022/11/26 01:48:46;;;;;;;;;;;;;;;9.47;59.53;102559.00;4940853;28;124173;-68
2022/11/26 01:51:14;;;;;;;;;;;;;;;9.46;59.43;102559.03;4962032;28;123961;-68
2022/11/26 01:53:46;;;;;;;;;;;;;;;9.42;59.63;102550.25;4956878;28;114321;-68
2022/11/26 01:56:18;;;;;;;;;;;;;;;9.39;59.66;102558.22;4956190;28;113267;-68
2022/11/26 01:58:50;;;;;;;;;;;;;;;9.36;59.57;102555.59;4948614;28;123695;-68
2022/11/26 02:01:17;;;;;;;;;;;;;;;9.34;59.82;102558.28;4955692;28;124138;-68
2022/11/26 02:03:47;;;;;;;;;;;;;;;9.33;59.54;102560.94;4943817;28;113386;-68
2022/11/26 02:06:18;;;;;;;;;;;;;;;9.31;59.80;102562.75;4956595;28;114629;-68
2022/11/26 02:08:45;;;;;;;;;;;;;;;9.30;59.62;102560.97;4936931;28;125757;-67
2022/11/26 02:11:22;;;;;;;;;;;;;;;9.29;59.72;102564.53;4944222;28;123356;-69
2022/11/26 02:13:51;;;;;;;;;;;;;;;9.28;59.80;102554.84;4956846;28;114246;-68
2022/11/26 02:16:24;;;;;;;;;;;;;;;9.26;59.76;102564.56;4958397;28;114465;-68
2022/11/26 02:19:09;;;;;;;;;;;;;;;9.25;59.92;102568.97;4950289;28;124426;-68
2022/11/26 02:21:38;;;;;;;;;;;;;;;9.23;59.75;102569.88;4953450;28;123236;-68
2022/11/26 02:24:05;;;;;;;;;;;;;;;9.23;59.84;102575.16;4951188;28;115367;-68
2022/11/26 02:26:43;;;;;;;;;;;;;;;9.21;59.57;102577.84;4962505;28;114877;-69
2022/11/26 02:29:21;;;;;;;;;;;;;;;9.18;59.67;102580.50;4958112;28;124762;-68
2022/11/26 02:31:59;;;;;;;;;;;;;;;9.17;59.63;102581.38;4938667;28;125128;-68
2022/11/26 02:34:32;;;;;;;;;;;;;;;9.15;59.75;102589.38;4950661;28;114323;-68
2022/11/26 02:37:10;;;;;;;;;;;;;;;9.14;59.60;102592.88;4950894;28;113114;-68
2022/11/26 02:39:37;;;;;;;;;;;;;;;9.12;59.76;102584.09;4954825;28;123215;-68
2022/11/26 02:42:23;;;;;;;;;;;;;;;9.11;59.58;102587.63;4957198;28;123755;-69
2022/11/26 02:44:51;;;;;;;;;;;;;;;9.09;59.68;102594.69;4960668;28;113033;-68
2022/11/26 02:47:18;;;;;;;;;;;;;;;9.08;59.75;102592.97;4955214;28;113736;-68
2022/11/26 02:49:48;;;;;;;;;;;;;;;9.06;59.77;102602.66;4955307;28;124405;-68
2022/11/26 02:52:15;;;;;;;;;;;;;;;9.05;59.63;102597.41;4954863;28;124623;-68
2022/11/26 02:54:43;;;;;;;;;;;;;;;9.03;59.70;102597.41;4956767;28;114865;-68
2022/11/26 02:57:12;;;;;;;;;;;;;;;9.03;59.62;102600.06;4957326;28;115126;-68
2022/11/26 02:59:39;;;;;;;;;;;;;;;9.02;59.82;102598.28;4954382;28;124223;-68
2022/11/26 03:02:14;;;;;;;;;;;;;;;9.01;59.68;102596.56;4957031;28;123192;-68
2022/11/26 03:04:44;;;;;;;;;;;;;;;9.01;59.94;102604.47;4952842;28;114357;-68
2022/11/26 03:07:13;;;;;;;;;;;;;;;9.01;59.74;102600.97;4954834;28;114720;-68
2022/11/26 03:09:49;;;;;;;;;;;;;;;9.01;59.71;102612.41;4959388;28;124079;-68
2022/11/26 03:12:15;;;;;;;;;;;;;;;8.99;59.71;102611.53;4950069;28;124360;-68
2022/11/26 03:14:42;;;;;;;;;;;;;;;8.97;59.74;102615.97;4950911;28;115572;-68
2022/11/26 03:17:09;;;;;;;;;;;;;;;8.97;59.82;102621.25;4954077;28;114294;-68
2022/11/26 03:19:36;;;;;;;;;;;;;;;8.96;59.67;102616.84;4959044;28;124107;-68
2022/11/26 03:22:03;;;;;;;;;;;;;;;8.95;59.71;102617.75;4952344;28;123983;-68
2022/11/26 03:24:30;;;;;;;;;;;;;;;8.94;59.62;102622.16;4942647;28;113810;-68
2022/11/26 03:26:58;;;;;;;;;;;;;;;8.93;60.02;102622.19;4954192;28;113670;-68
2022/11/26 03:29:25;;;;;;;;;;;;;;;8.92;59.85;102617.78;4954914;28;123993;-68
2022/11/26 03:31:51;;;;;;;;;;;;;;;8.90;59.98;102630.13;4955335;28;124993;-68
2022/11/26 03:34:18;;;;;;;;;;;;;;;8.90;59.63;102630.13;4949779;28;114679;-68
2022/11/26 03:36:45;;;;;;;;;;;;;;;8.89;59.93;102638.94;4952669;28;114564;-68
2022/11/26 03:39:12;;;;;;;;;;;;;;;8.87;59.71;102635.44;4948952;28;124103;-68
2022/11/26 03:41:42;;;;;;;;;;;;;;;8.88;59.76;102647.75;4953662;28;123985;-68
2022/11/26 03:44:10;;;;;;;;;;;;;;;8.88;59.39;102650.41;4948181;28;113909;-68
2022/11/26 03:46:37;;;;;;;;;;;;;;;8.86;59.61;102645.13;4933650;28;113511;-69
2022/11/26 03:49:04;;;;;;;;;;;;;;;8.85;59.87;102647.78;4950653;28;125139;-68
2022/11/26 03:51:31;;;;;;;;;;;;;;;8.84;59.95;102651.34;4953654;28;123952;-68
2022/11/26 03:53:58;;;;;;;;;;;;;;;8.83;59.59;102649.56;4962585;28;115217;-68
2022/11/26 03:56:25;;;;;;;;;;;;;;;8.81;59.92;102646.06;4952314;28;113890;-68
2022/11/26 03:58:51;;;;;;;;;;;;;;;8.80;59.83;102644.28;4948983;28;123320;-69
2022/11/26 04:01:18;;;;;;;;;;;;;;;8.77;60.00;102646.06;4952241;28;123989;-69
2022/11/26 04:03:45;;;;;;;;;;;;;;;8.79;60.00;102658.41;4950463;28;115575;-68
2022/11/26 04:06:12;;;;;;;;;;;;;;;8.79;59.70;102658.41;4951560;28;114791;-68
2022/11/26 04:08:39;;;;;;;;;;;;;;;8.79;59.77;102663.69;4955111;28;125691;-69
2022/11/26 04:11:06;;;;;;;;;;;;;;;8.77;59.93;102656.66;4938517;28;122121;-68
2022/11/26 04:13:33;;;;;;;;;;;;;;;8.77;59.89;102661.94;4955862;28;115462;-68
2022/11/26 04:15:59;;;;;;;;;;;;;;;8.77;59.77;102654.00;4955098;28;113967;-68
2022/11/26 04:18:26;;;;;;;;;;;;;;;8.79;59.79;102658.41;4954325;28;123854;-67
2022/11/26 04:20:53;;;;;;;;;;;;;;;8.79;59.66;102663.69;4954532;28;125364;-68
2022/11/26 04:23:20;;;;;;;;;;;;;;;8.79;59.72;102666.34;4967151;28;115016;-68
2022/11/26 04:25:47;;;;;;;;;;;;;;;8.79;59.74;102671.63;4960887;28;113584;-68
2022/11/26 04:28:14;;;;;;;;;;;;;;;8.79;59.67;102668.97;4954012;28;123985;-68
2022/11/26 04:30:41;;;;;;;;;;;;;;;8.76;59.74;102665.47;4943421;28;124569;-67
2022/11/26 04:33:08;;;;;;;;;;;;;;;8.79;59.85;102668.97;4956314;28;114641;-68
2022/11/26 04:35:36;;;;;;;;;;;;;;;8.76;59.78;102676.03;4954437;28;114341;-68
2022/11/26 04:38:02;;;;;;;;;;;;;;;8.75;59.79;102684.84;4968039;28;123478;-68
2022/11/26 04:40:29;;;;;;;;;;;;;;;8.74;59.69;102683.09;4961810;28;124708;-68
2022/11/26 04:42:56;;;;;;;;;;;;;;;8.73;59.69;102683.97;4957607;28;114590;-68
2022/11/26 04:45:24;;;;;;;;;;;;;;;8.72;59.53;102689.28;4964429;28;113627;-68
2022/11/26 04:47:51;;;;;;;;;;;;;;;8.71;59.83;102688.41;4961212;28;124489;-68
2022/11/26 04:50:18;;;;;;;;;;;;;;;8.70;59.74;102696.34;4943829;28;122786;-68
2022/11/26 04:52:47;;;;;;;;;;;;;;;8.68;59.74;102693.72;4960396;28;115820;-69
2022/11/26 04:55:15;;;;;;;;;;;;;;;8.67;59.89;102686.69;4960514;28;114761;-69
2022/11/26 04:57:42;;;;;;;;;;;;;;;8.66;60.15;102684.91;4954575;28;124279;-68
2022/11/26 05:00:09;;;;;;;;;;;;;;;8.67;59.87;102688.44;4965175;28;123741;-69
2022/11/26 05:02:36;;;;;;;;;;;;;;;8.67;59.81;102681.41;4959606;28;114751;-69
2022/11/26 05:05:03;;;;;;;;;;;;;;;8.67;59.67;102684.03;4960779;28;113613;-69
2022/11/26 05:07:30;;;;;;;;;;;;;;;8.66;59.98;102684.91;4944955;28;124465;-68
2022/11/26 05:09:57;;;;;;;;;;;;;;;8.66;59.91;102695.47;4931220;28;123052;-69
2022/11/26 05:12:23;;;;;;;;;;;;;;;8.66;59.76;102690.19;4949156;28;114414;-69
2022/11/26 05:14:50;;;;;;;;;;;;;;;8.67;59.80;102697.25;4961164;28;113869;-69
2022/11/26 05:17:17;;;;;;;;;;;;;;;8.68;60.02;102701.66;4958315;28;124094;-69
2022/11/26 05:19:44;;;;;;;;;;;;;;;8.69;60.07;102695.47;4965968;28;123902;-69
2022/11/26 05:22:11;;;;;;;;;;;;;;;8.70;60.05;102707.81;4962951;28;114388;-69
2022/11/26 05:24:38;;;;;;;;;;;;;;;8.70;59.68;102697.22;4955430;28;113373;-69
2022/11/26 05:27:05;;;;;;;;;;;;;;;8.70;59.96;102705.16;4933449;28;124588;-69
2022/11/26 05:29:32;;;;;;;;;;;;;;;8.70;59.62;102702.53;4953522;28;123865;-69
2022/11/26 05:31:59;;;;;;;;;;;;;;;8.68;59.97;102699.00;4957459;28;114588;-69
2022/11/26 05:34:26;;;;;;;;;;;;;;;8.67;59.76;102697.25;4955760;28;113667;-69
2022/11/26 05:36:53;;;;;;;;;;;;;;;8.65;59.75;102696.38;4943797;28;123876;-69
2022/11/26 05:39:20;;;;;;;;;;;;;;;8.65;59.77;102704.31;4963549;28;124711;-69
2022/11/26 05:41:47;;;;;;;;;;;;;;;8.63;59.72;102711.38;4960185;28;115064;-69
2022/11/26 05:44:14;;;;;;;;;;;;;;;8.63;60.06;102708.72;4962877;28;114723;-69
2022/11/26 05:46:41;;;;;;;;;;;;;;;8.62;59.80;102709.59;4945418;28;123103;-69
2022/11/26 05:49:08;;;;;;;;;;;;;;;8.61;59.94;102712.25;4958666;28;124660;-69
2022/11/26 05:51:35;;;;;;;;;;;;;;;8.59;60.06;102704.34;4957524;28;114366;-69
2022/11/26 05:54:02;;;;;;;;;;;;;;;8.57;60.06;102711.41;4958223;28;113835;-69
2022/11/26 05:56:29;;;;;;;;;;;;;;;8.57;59.94;102707.00;4958287;28;124063;-69
2022/11/26 05:58:56;;;;;;;;;;;;;;;8.56;59.96;102709.66;4961469;28;124652;-69
2022/11/26 06:01:23;;;;;;;;;;;;;;;8.56;60.01;102709.66;4960445;28;114458;-68
2022/11/26 06:03:49;;;;;;;;;;;;;;;8.56;59.88;102720.22;4937400;28;112118;-69
2022/11/26 06:06:16;;;;;;;;;;;;;;;8.55;59.95;102719.34;4939871;28;124651;-68
2022/11/26 06:08:43;;;;;;;;;;;;;;;8.54;60.10;102720.22;4954882;28;125274;-69
2022/11/26 06:11:11;;;;;;;;;;;;;;;8.54;60.12;102733.41;4954220;28;114057;-68
2022/11/26 06:13:38;;;;;;;;;;;;;;;8.54;59.78;102736.06;4955765;28;113300;-68
2022/11/26 06:16:05;;;;;;;;;;;;;;;8.54;59.87;102732.56;4936098;28;123110;-69
2022/11/26 06:18:32;;;;;;;;;;;;;;;8.55;59.80;102734.28;4952806;28;123702;-69
2022/11/26 06:21:03;;;;;;;;;;;;;;;8.54;59.84;102740.47;4937249;28;114810;-69
2022/11/26 06:23:30;;;;;;;;;;;;;;;8.53;60.01;102743.97;4938963;28;113336;-69
2022/11/26 06:25:57;;;;;;;;;;;;;;;8.53;59.81;102751.91;4935779;28;123148;-69
2022/11/26 06:28:24;;;;;;;;;;;;;;;8.53;59.83;102751.91;4955160;28;123816;-69
2022/11/26 06:30:51;;;;;;;;;;;;;;;8.52;59.70;102750.16;4952762;28;114984;-69
2022/11/26 06:33:18;;;;;;;;;;;;;;;8.52;60.10;102750.16;4954138;28;116847;-69
2022/11/26 06:35:44;;;;;;;;;;;;;;;8.49;60.21;102750.19;4956165;28;124011;-69
2022/11/26 06:38:11;;;;;;;;;;;;;;;8.49;59.83;102755.47;4937503;28;123464;-69
2022/11/26 06:40:38;;;;;;;;;;;;;;;8.48;59.83;102761.66;4935123;28;114357;-69
2022/11/26 06:43:08;;;;;;;;;;;;;;;8.47;59.91;102762.50;4950991;28;114089;-69
2022/11/26 06:45:35;;;;;;;;;;;;;;;8.46;59.81;102766.06;4933255;28;124658;-68
2022/11/26 06:48:02;;;;;;;;;;;;;;;8.45;60.12;102769.56;4955229;28;123979;-69
2022/11/26 06:50:29;;;;;;;;;;;;;;;8.44;59.80;102767.81;4957147;28;114151;-69
2022/11/26 06:52:56;;;;;;;;;;;;;;;8.44;59.86;102773.09;4952094;28;113726;-69
2022/11/26 06:55:23;;;;;;;;;;;;;;;8.43;59.84;102776.63;4950452;28;124871;-69
2022/11/26 06:57:50;;;;;;;;;;;;;;;8.43;60.10;102789.81;4951451;28;124899;-69
2022/11/26 07:00:17;;;;;;;;;;;;;;;8.43;59.81;102788.06;4949006;28;115212;-69
2022/11/26 07:02:44;;;;;;;;;;;;;;;8.43;59.93;102781.91;4949086;28;113829;-69
2022/11/26 07:05:11;;;;;;;;;;;;;;;8.42;60.00;102777.50;4950483;28;124252;-69
2022/11/26 07:07:38;;;;;;;;;;;;;;;8.41;59.76;102779.22;4950568;28;124759;-69
2022/11/26 07:10:05;;;;;;;;;;;;;;;8.41;59.99;102775.72;4934114;28;113570;-69
2022/11/26 07:12:32;;;;;;;;;;;;;;;8.41;60.08;102778.38;4955387;28;113448;-69
2022/11/26 07:14:59;;;;;;;;;;;;;;;8.39;59.81;102776.59;4954418;28;124095;-69
2022/11/26 07:17:26;;;;;;;;;;;;;;;8.39;59.68;102787.16;4957450;28;124128;-69
2022/11/26 07:19:53;;;;;;;;;;;;;;;8.38;59.83;102774.84;4954604;28;115832;-69
2022/11/26 07:22:20;;;;;;;;;;;;;;;8.37;59.92;102788.94;4958629;28;114817;-69
2022/11/26 07:24:47;;;;;;;;;;;;;;;8.36;59.88;102787.19;4942035;28;123284;-69
2022/11/26 07:27:13;;;;;;;;;;;;;;;8.36;60.11;102795.09;4954176;28;124721;-69
2022/11/26 07:29:40;;;;;;;;;;;;;;;8.37;59.96;102794.22;4953682;28;114122;-69
2022/11/26 07:32:07;;;;;;;;;;;;;;;8.37;59.99;102794.22;4951951;28;113501;-69
2022/11/26 07:34:34;;;;;;;;;;;;;;;8.39;59.97;102797.72;4953887;28;125298;-68
2022/11/26 07:37:01;;;;;;;;;;;;;;;8.41;60.05;102794.22;4950656;28;123830;-69
2022/11/26 07:39:28;;;;;;;;;;;;;;;8.43;59.97;102803.03;4937314;28;113341;-69
2022/11/26 07:41:55;;;;;;;;;;;;;;;8.44;60.00;102804.75;4940134;28;114111;-69
2022/11/26 07:44:22;;;;;;;;;;;;;;;8.44;59.98;102804.75;4931994;28;124117;-69
2022/11/26 07:46:49;;;;;;;;;;;;;;;8.44;59.93;102815.31;4953152;28;123893;-69
2022/11/26 07:49:15;;;;;;;;;;;;;;;8.45;60.27;102814.47;4956059;28;114340;-69
2022/11/26 07:51:42;;;;;;;;;;;;;;;8.46;60.16;102813.59;4954918;28;113617;-69
2022/11/26 07:54:09;;;;;;;;;;;;;;;8.47;60.35;102807.41;4954341;28;124932;-68
2022/11/26 07:56:36;;;;;;;;;;;;;;;8.48;60.32;102817.09;4960223;28;123963;-69
2022/11/26 07:59:03;;;;;;;;;;;;;;;8.51;60.31;102819.69;4961919;28;115019;-69
2022/11/26 08:01:30;;;;;;;;;;;;;;;8.53;60.10;102820.56;4960189;28;113687;-69
2022/11/26 08:03:58;;;;;;;;;;;;;;;8.55;60.23;102818.78;4938045;28;123327;-68
2022/11/26 08:06:27;;;;;;;;;;;;;;;8.55;60.39;102813.50;4957457;28;124305;-67
2022/11/26 08:08:54;;;;;;;;;;;;;;;8.58;60.13;102802.94;4961836;28;115885;-68
2022/11/26 08:11:22;;;;;;;;;;;;;;;8.60;60.12;102806.47;4943213;28;115595;-67
2022/11/26 08:13:51;;;;;;;;;;;;;;;8.63;60.30;102803.81;4959274;28;126396;-68
2022/11/26 08:16:18;;;;;;;;;;;;;;;8.66;60.36;102806.41;4957404;28;123975;-68
2022/11/26 08:18:45;;;;;;;;;;;;;;;8.69;60.22;102806.41;4958268;28;114275;-67
2022/11/26 08:21:12;;;;;;;;;;;;;;;8.72;60.42;102805.50;4937636;28;113227;-67
2022/11/26 08:23:38;;;;;;;;;;;;;;;8.75;60.36;102806.38;4955569;28;124245;-68
2022/11/26 08:26:10;;;;;;;;;;;;;;;8.79;60.22;102812.50;4954659;28;123944;-67
2022/11/26 08:28:52;;;;;;;;;;;;;;;8.85;60.33;102817.75;4955923;28;113963;-68
2022/11/26 08:31:19;;;;;;;;;;;;;;;8.88;60.38;102822.16;4953021;28;113412;-67
2022/11/26 08:33:45;;;;;;;;;;;;;;;8.91;60.43;102822.13;4952532;28;124175;-68
2022/11/26 08:36:12;;;;;;;;;;;;;;;8.97;60.61;102827.41;4954421;28;124746;-68
2022/11/26 08:38:39;;;;;;;;;;;;;;;9.02;60.41;102830.84;4955945;28;114461;-67
2022/11/26 08:41:08;;;;;;;;;;;;;;;9.07;60.27;102823.78;4938961;28;113116;-67
2022/11/26 08:43:35;;;;;;;;;;;;;;;9.13;60.63;102823.72;4955115;28;124293;-67
2022/11/26 08:46:22;;;;;;;;;;;;;;;9.21;60.62;102825.44;4963251;28;126781;-67
2022/11/26 08:48:48;;;;;;;;;;;;;;;9.26;60.49;102828.94;4957502;28;113191;-68
2022/11/26 08:51:16;;;;;;;;;;;;;;;9.33;60.44;102822.72;4966108;28;113776;-67
2022/11/26 08:53:44;;;;;;;;;;;;;;;9.41;60.50;102823.53;4961036;28;124807;-68
2022/11/26 08:56:11;;;;;;;;;;;;;;;9.49;60.81;102821.72;4962462;28;125419;-68
2022/11/26 08:58:39;;;;;;;;;;;;;;;9.57;60.51;102823.41;4962233;28;115924;-68
2022/11/26 09:01:08;;;;;;;;;;;;;;;9.64;60.69;102822.47;4961564;28;114678;-68
2022/11/26 09:03:35;;;;;;;;;;;;;;;9.70;60.58;102825.03;4969695;28;125121;-68
2022/11/26 09:06:02;;;;;;;;;;;;;;;9.78;60.62;102823.22;4969932;28;124933;-67
2022/11/26 09:08:30;;;;;;;;;;;;;;;9.84;60.67;102833.72;4970405;28;114250;-67
2022/11/26 09:10:57;;;;;;;;;;;;;;;9.92;60.48;102837.16;4934284;28;112464;-67
2022/11/26 09:13:24;;;;;;;;;;;;;;;9.99;60.57;102843.28;4949363;28;123265;-68
2022/11/26 09:15:51;;;;;;;;;;;;;;;10.04;60.55;102840.56;4965542;28;124825;-67
2022/11/26 09:18:18;;;;;;;;;;;;;;;10.10;60.61;102840.53;4957855;28;114083;-67
2022/11/26 09:20:45;;;;;;;;;;;;;;;10.16;60.46;102845.75;4959621;28;113902;-67
2022/11/26 09:23:11;;;;;;;;;;;;;;;10.22;60.52;102837.72;4935147;28;124766;-67
2022/11/26 09:25:39;;;;;;;;;;;;;;;10.26;60.21;102839.44;4949013;28;123782;-68
2022/11/26 09:28:05;;;;;;;;;;;;;;;10.28;60.41;102840.34;4955629;28;114797;-68
2022/11/26 09:30:33;;;;;;;;;;;;;;;10.32;60.52;102842.06;4961523;28;114555;-68
2022/11/26 09:33:00;;;;;;;;;;;;;;;10.37;60.45;102849.09;4961964;28;124511;-68
2022/11/26 09:35:27;;;;;;;;;;;;;;;10.41;60.30;102850.81;4961039;28;124049;-68
2022/11/26 09:37:54;;;;;;;;;;;;;;;10.45;60.43;102852.50;4964729;28;114381;-68
2022/11/26 09:40:26;;;;;;;;;;;;;;;10.49;60.49;102848.91;4965598;28;113632;-68
2022/11/26 09:42:59;;;;;;;;;;;;;;;10.54;60.47;102852.41;4937338;28;123781;-70
2022/11/26 09:45:38;;;;;;;;;;;;;;;10.60;60.34;102852.31;4963282;28;124487;-68
2022/11/26 09:48:11;;;;;;;;;;;;;;;10.64;60.43;102856.72;4958025;28;116289;-68
2022/11/26 09:50:39;;;;;;;;;;;;;;;10.67;60.46;102854.00;4970597;28;114906;-67
2022/11/26 09:53:11;;;;;;;;;;;;;;;10.73;60.33;102862.78;4967549;28;124402;-68
2022/11/26 09:55:42;;;;;;;;;;;;;;;10.76;60.48;102870.69;4938434;28;125350;-68
2022/11/26 09:58:12;;;;;;;;;;;;;;;10.80;60.37;102875.03;4949573;28;115157;-68
2022/11/26 10:00:41;;;;;;;;;;;;;;;10.84;60.35;102866.16;4944459;28;113173;-68
2022/11/26 10:03:12;;;;;;;;;;;;;;;10.89;60.49;102859.03;4950671;28;123930;-68
2022/11/26 10:05:41;;;;;;;;;;;;;;;10.96;60.57;102860.66;4956244;28;123794;-68
2022/11/26 10:08:35;;;;;;;;;;;;;;;11.01;60.55;102858.84;4951237;28;114463;-68
2022/11/26 10:11:01;;;;;;;;;;;;;;;11.09;60.52;102871.97;4941991;28;113922;-68
2022/11/26 10:13:39;;;;;;;;;;;;;;;11.15;60.53;102865.72;4958666;28;124560;-68
2022/11/26 10:16:13;;;;;;;;;;;;;;;11.18;60.60;102863.03;4958512;28;122873;-68
2022/11/26 10:18:53;;;;;;;;;;;;;;;11.22;60.32;102862.06;4966764;28;114365;-67
2022/11/26 10:21:20;;;;;;;;;;;;;;;11.27;60.59;102870.84;4964523;28;113761;-68
2022/11/26 10:24:15;;;;;;;;;;;;;;;11.31;60.48;102867.22;4964843;28;123956;-68
2022/11/26 10:26:43;;;;;;;;;;;;;;;11.35;60.44;102858.31;4954843;28;123860;-68
2022/11/26 10:29:22;;;;;;;;;;;;;;;11.38;60.48;102868.91;4958496;28;113777;-67
2022/11/26 10:31:52;;;;;;;;;;;;;;;11.43;60.36;102866.16;4956929;28;114520;-68
2022/11/26 10:34:29;;;;;;;;;;;;;;;11.47;60.54;102868.75;4933985;28;124195;-68
2022/11/26 10:37:03;;;;;;;;;;;;;;;11.54;60.45;102855.38;4952116;28;124650;-68
2022/11/26 10:39:30;;;;;;;;;;;;;;;11.59;60.41;102845.56;4960725;28;115627;-68
2022/11/26 10:42:02;;;;;;;;;;;;;;;11.63;60.37;102847.25;4946953;28;114839;-68
2022/11/26 10:44:39;;;;;;;;;;;;;;;11.68;60.44;102850.72;4966935;28;124545;-68
2022/11/26 10:47:27;;;;;;;;;;;;;;;11.74;60.39;102842.63;4950335;28;124140;-68
2022/11/26 10:50:00;;;;;;;;;;;;;;;11.79;60.28;102847.84;4987644;28;114394;-68
2022/11/26 10:52:45;;;;;;;;;;;;;;;11.84;60.46;102852.19;4972990;28;113923;-68
2022/11/26 10:55:33;;;;;;;;;;;;;;;11.91;60.64;102852.13;4969910;28;124120;-68
2022/11/26 10:58:03;;;;;;;;;;;;;;;11.96;60.37;102844.94;4937209;28;124984;-68
2022/11/26 11:00:33;;;;;;;;;;;;;;;12.00;60.49;102846.66;4962258;28;114740;-68
2022/11/26 11:03:00;;;;;;;;;;;;;;;12.04;60.41;102846.53;4939342;28;113697;-67
2022/11/26 11:05:28;;;;;;;;;;;;;;;12.11;60.38;102847.31;4955671;28;124337;-68
2022/11/26 11:07:54;;;;;;;;;;;;;;;12.15;60.38;102846.34;4956359;28;124140;-68
2022/11/26 11:10:23;;;;;;;;;;;;;;;12.22;60.42;102841.78;4947743;28;115345;-68
2022/11/26 11:13:09;;;;;;;;;;;;;;;12.27;60.48;102835.47;4956948;28;114167;-68
2022/11/26 11:15:39;;;;;;;;;;;;;;;12.31;60.50;102830.09;4948768;28;125608;-68
2022/11/26 11:18:05;;;;;;;;;;;;;;;12.35;60.41;102831.78;4949616;28;124511;-67
2022/11/26 11:20:42;;;;;;;;;;;;;;;12.39;60.42;102838.78;4929115;28;114779;-68
2022/11/26 11:23:09;;;;;;;;;;;;;;;12.43;60.42;102829.81;4948623;28;113687;-68
2022/11/26 11:25:38;;;;;;;;;;;;;;;12.47;60.32;102826.22;4951533;28;123909;-68
2022/11/26 11:28:12;;;;;;;;;;;;;;;12.51;60.46;102827.91;4948492;28;124186;-69
2022/11/26 11:30:40;;;;;;;;;;;;;;;12.57;60.46;102833.06;4949153;28;115894;-68
2022/11/26 11:33:15;;;;;;;;;;;;;;;12.64;60.55;102824.06;4952036;28;114642;-68
2022/11/26 11:35:41;;;;;;;;;;;;;;;12.72;60.53;102831.00;4936335;28;123944;-68
2022/11/26 11:38:22;;;;;;;;;;;;;;;12.80;60.56;102823.72;4946009;28;123638;-68
2022/11/26 11:40:49;;;;;;;;;;;;;;;12.88;60.55;102821.75;4949091;28;114211;-68
2022/11/26 11:43:18;;;;;;;;;;;;;;;12.94;60.50;102821.63;4948945;28;113941;-68
2022/11/26 11:45:54;;;;;;;;;;;;;;;13.00;60.68;102821.47;4952001;28;124696;-68
2022/11/26 11:48:24;;;;;;;;;;;;;;;13.09;60.53;102822.16;4934509;28;122809;-68
2022/11/26 11:51:01;;;;;;;;;;;;;;;13.18;60.59;102821.94;4950395;28;115452;-68
2022/11/26 11:53:33;;;;;;;;;;;;;;;13.27;60.82;102813.75;4950371;28;113982;-68
2022/11/26 11:56:14;;;;;;;;;;;;;;;13.36;60.64;102818.88;4953120;28;124342;-68
2022/11/26 11:58:43;;;;;;;;;;;;;;;13.47;60.71;102820.38;4940696;28;122930;-68
2022/11/26 12:01:29;;;;;;;;;;;;;;;13.56;60.76;102814.81;4948423;28;114596;-68
2022/11/26 12:04:02;;;;;;;;;;;;;;;13.64;60.68;102820.84;4954253;28;114939;-68
2022/11/26 12:06:46;;;;;;;;;;;;;;;13.72;60.63;102815.31;4941450;28;125909;-68
2022/11/26 12:09:25;;;;;;;;;;;;;;;13.79;60.40;102812.44;4955451;28;124038;-68
2022/11/26 12:11:55;;;;;;;;;;;;;;;13.86;60.28;102817.59;4960797;28;115576;-68
2022/11/26 12:14:29;;;;;;;;;;;;;;;13.91;60.45;102811.22;4968733;28;114622;-68
2022/11/26 12:16:59;;;;;;;;;;;;;;;13.95;60.30;102802.22;4944481;28;124078;-68
2022/11/26 12:19:38;;;;;;;;;;;;;;;14.00;60.28;102804.78;4972675;28;126498;-68
2022/11/26 12:22:15;;;;;;;;;;;;;;;14.04;60.45;102800.25;4965281;28;115477;-68
2022/11/26 12:24:49;;;;;;;;;;;;;;;14.09;60.26;102804.53;4956433;28;114571;-68
2022/11/26 12:27:19;;;;;;;;;;;;;;;14.14;60.21;102799.91;4946491;28;123991;-68
2022/11/26 12:29:50;;;;;;;;;;;;;;;14.20;60.30;102799.75;4952730;28;124085;-68
2022/11/26 12:32:20;;;;;;;;;;;;;;;14.26;60.21;102811.13;4956237;28;114795;-68
2022/11/26 12:34:49;;;;;;;;;;;;;;;14.29;60.20;102806.59;4946060;28;112657;-68
2022/11/26 12:37:22;;;;;;;;;;;;;;;14.34;60.21;102798.47;4952135;28;123952;-68
2022/11/26 12:39:55;;;;;;;;;;;;;;;14.36;60.02;102801.97;4935071;28;123286;-68
2022/11/26 12:42:27;;;;;;;;;;;;;;;14.39;60.18;102801.84;4951639;28;114123;-68
2022/11/26 12:44:56;;;;;;;;;;;;;;;14.40;59.89;102803.63;4967590;28;113663;-67